sensor_id;sensor_type;location;lat;lon;timestamp;pressure;altitude;pressure_sealevel;temperature;humidity
28927;BME280;16038;47.692;9.400;2023-03-11T00:01:08;95567.53;;;4.20;76.51
28927;BME280;16038;47.692;9.400;2023-03-11T00:03:34;95568.50;;;4.12;78.16
28927;BME280;16038;47.692;9.400;2023-03-11T00:06:00;95563.47;;;4.11;79.49
28927;BME280;16038;47.692;9.400;2023-03-11T00:08:25;95586.44;;;4.17;83.07
28927;BME280;16038;47.692;9.400;2023-03-11T00:10:52;95569.66;;;4.11;86.86
28927;BME280;16038;47.692;9.400;2023-03-11T00:13:19;95578.31;;;4.01;89.68
28927;BME280;16038;47.692;9.400;2023-03-11T00:15:45;95569.41;;;4.00;91.60
28927;BME280;16038;47.692;9.400;2023-03-11T00:18:11;95567.22;;;3.90;92.81
28927;BME280;16038;47.692;9.400;2023-03-11T00:20:38;95575.59;;;3.85;94.85
28927;BME280;16038;47.692;9.400;2023-03-11T00:23:04;95573.38;;;3.87;95.16
28927;BME280;16038;47.692;9.400;2023-03-11T00:25:30;95583.66;;;3.81;96.43
28927;BME280;16038;47.692;9.400;2023-03-11T00:27:55;95586.53;;;3.89;97.08
28927;BME280;16038;47.692;9.400;2023-03-11T00:30:21;95590.47;;;3.91;97.34
28927;BME280;16038;47.692;9.400;2023-03-11T00:32:47;95578.22;;;3.81;97.03
28927;BME280;16038;47.692;9.400;2023-03-11T00:35:13;95574.66;;;3.77;97.82
28927;BME280;16038;47.692;9.400;2023-03-11T00:37:39;95580.06;;;3.77;98.67
28927;BME280;16038;47.692;9.400;2023-03-11T00:40:05;95585.94;;;3.79;97.68
28927;BME280;16038;47.692;9.400;2023-03-11T00:42:33;95593.09;;;3.88;97.79
28927;BME280;16038;47.692;9.400;2023-03-11T00:44:58;95575.19;;;3.83;98.44
28927;BME280;16038;47.692;9.400;2023-03-11T00:47:23;95568.38;;;3.73;98.59
28927;BME280;16038;47.692;9.400;2023-03-11T00:49:48;95578.88;;;3.91;98.45
28927;BME280;16038;47.692;9.400;2023-03-11T00:52:14;95572.91;;;3.85;98.52
28927;BME280;16038;47.692;9.400;2023-03-11T00:54:39;95570.19;;;3.85;98.52
28927;BME280;16038;47.692;9.400;2023-03-11T00:57:04;95565.50;;;3.82;98.97
28927;BME280;16038;47.692;9.400;2023-03-11T00:59:29;95573.03;;;3.73;99.24
28927;BME280;16038;47.692;9.400;2023-03-11T01:01:55;95569.94;;;3.90;98.92
28927;BME280;16038;47.692;9.400;2023-03-11T01:04:20;95570.69;;;4.07;98.13
28927;BME280;16038;47.692;9.400;2023-03-11T01:06:45;95588.63;;;3.95;98.03
28927;BME280;16038;47.692;9.400;2023-03-11T01:09:11;95575.69;;;3.89;98.03
28927;BME280;16038;47.692;9.400;2023-03-11T01:11:36;95579.81;;;3.82;98.75
28927;BME280;16038;47.692;9.400;2023-03-11T01:14:01;95586.44;;;3.85;98.31
28927;BME280;16038;47.692;9.400;2023-03-11T01:16:28;95599.63;;;3.71;97.91
28927;BME280;16038;47.692;9.400;2023-03-11T01:18:53;95596.84;;;3.67;99.17
28927;BME280;16038;47.692;9.400;2023-03-11T01:21:19;95596.84;;;3.83;98.57
28927;BME280;16038;47.692;9.400;2023-03-11T01:23:44;95590.47;;;3.91;97.97
28927;BME280;16038;47.692;9.400;2023-03-11T01:26:09;95586.59;;;4.08;96.40
28927;BME280;16038;47.692;9.400;2023-03-11T01:28:35;95588.03;;;4.02;96.70
28927;BME280;16038;47.692;9.400;2023-03-11T01:31:00;95586.00;;;3.99;96.91
28927;BME280;16038;47.692;9.400;2023-03-11T01:33:25;95582.88;;;3.97;96.38
28927;BME280;16038;47.692;9.400;2023-03-11T01:35:51;95593.09;;;3.88;95.66
28927;BME280;16038;47.692;9.400;2023-03-11T01:38:16;95597.19;;;3.81;94.77
28927;BME280;16038;47.692;9.400;2023-03-11T01:40:42;95598.69;;;3.95;93.84
28927;BME280;16038;47.692;9.400;2023-03-11T01:48:17;95598.94;;;3.90;87.74
28927;BME280;16038;47.692;9.400;2023-03-11T01:50:44;95587.34;;;3.89;87.65
28927;BME280;16038;47.692;9.400;2023-03-11T01:53:10;95607.16;;;3.93;87.14
28927;BME280;16038;47.692;9.400;2023-03-11T01:55:37;95599.38;;;3.92;86.17
28927;BME280;16038;47.692;9.400;2023-03-11T01:58:03;95598.25;;;3.93;85.21
28927;BME280;16038;47.692;9.400;2023-03-11T02:00:30;95595.63;;;3.80;84.43
28927;BME280;16038;47.692;9.400;2023-03-11T02:02:56;95597.38;;;3.89;82.91
28927;BME280;16038;47.692;9.400;2023-03-11T02:05:23;95597.19;;;3.81;83.72
28927;BME280;16038;47.692;9.400;2023-03-11T02:07:49;95581.75;;;3.82;84.53
28927;BME280;16038;47.692;9.400;2023-03-11T02:10:15;95581.56;;;3.59;85.81
28927;BME280;16038;47.692;9.400;2023-03-11T02:12:40;95584.63;;;3.73;86.18
28927;BME280;16038;47.692;9.400;2023-03-11T02:15:07;95595.81;;;3.88;84.93
28927;BME280;16038;47.692;9.400;2023-03-11T02:17:33;95607.94;;;3.78;85.38
28927;BME280;16038;47.692;9.400;2023-03-11T02:22:26;95605.06;;;3.87;86.49
28927;BME280;16038;47.692;9.400;2023-03-11T02:25:09;95607.06;;;3.90;86.86
28927;BME280;16038;47.692;9.400;2023-03-11T02:27:38;95587.25;;;3.86;86.98
28927;BME280;16038;47.692;9.400;2023-03-11T02:30:05;95588.97;;;3.78;87.71
28927;BME280;16038;47.692;9.400;2023-03-11T02:32:31;95586.81;;;3.68;88.56
28927;BME280;16038;47.692;9.400;2023-03-11T02:34:56;95582.94;;;3.53;88.76
28927;BME280;16038;47.692;9.400;2023-03-11T02:37:21;95587.56;;;3.52;89.85
28927;BME280;16038;47.692;9.400;2023-03-11T02:39:48;95597.97;;;3.50;90.80
28927;BME280;16038;47.692;9.400;2023-03-11T02:44:52;95604.00;;;3.59;91.57
28927;BME280;16038;47.692;9.400;2023-03-11T02:47:19;95608.91;;;3.54;91.61
28927;BME280;16038;47.692;9.400;2023-03-11T02:49:45;95611.09;;;3.64;89.88
28927;BME280;16038;47.692;9.400;2023-03-11T02:52:10;95613.97;;;3.71;90.05
28927;BME280;16038;47.692;9.400;2023-03-11T02:54:36;95600.69;;;3.66;89.51
28927;BME280;16038;47.692;9.400;2023-03-11T02:57:02;95594.31;;;3.58;90.30
28927;BME280;16038;47.692;9.400;2023-03-11T02:59:27;95604.41;;;3.45;90.62
28927;BME280;16038;47.692;9.400;2023-03-11T03:01:52;95612.81;;;3.40;91.62
28927;BME280;16038;47.692;9.400;2023-03-11T03:04:18;95619.34;;;3.39;92.06
28927;BME280;16038;47.692;9.400;2023-03-11T03:06:43;95626.72;;;3.55;91.08
28927;BME280;16038;47.692;9.400;2023-03-11T03:09:08;95644.63;;;3.59;90.27
28927;BME280;16038;47.692;9.400;2023-03-11T03:11:34;95651.97;;;3.59;91.09
28927;BME280;16038;47.692;9.400;2023-03-11T03:13:59;95651.56;;;3.73;90.81
28927;BME280;16038;47.692;9.400;2023-03-11T03:16:24;95637.81;;;3.81;88.98
28927;BME280;16038;47.692;9.400;2023-03-11T03:18:50;95631.63;;;3.81;88.60
28927;BME280;16038;47.692;9.400;2023-03-11T03:21:16;95631.09;;;3.75;88.25
28927;BME280;16038;47.692;9.400;2023-03-11T03:23:41;95615.03;;;3.82;87.15
28927;BME280;16038;47.692;9.400;2023-03-11T03:26:06;95615.47;;;3.85;86.43
28927;BME280;16038;47.692;9.400;2023-03-11T03:28:32;95615.28;;;3.61;87.10
28927;BME280;16038;47.692;9.400;2023-03-11T03:31:04;95611.09;;;3.64;88.05
28927;BME280;16038;47.692;9.400;2023-03-11T03:33:30;95624.09;;;3.58;89.16
28927;BME280;16038;47.692;9.400;2023-03-11T03:35:56;95619.97;;;3.49;88.89
28927;BME280;16038;47.692;9.400;2023-03-11T03:38:21;95621.47;;;3.46;89.41
28927;BME280;16038;47.692;9.400;2023-03-11T03:40:46;95619.66;;;3.22;90.33
28927;BME280;16038;47.692;9.400;2023-03-11T03:43:11;95612.69;;;3.21;90.32
28927;BME280;16038;47.692;9.400;2023-03-11T03:45:37;95602.09;;;3.16;90.34
28927;BME280;16038;47.692;9.400;2023-03-11T03:48:02;95604.41;;;3.01;90.82
28927;BME280;16038;47.692;9.400;2023-03-11T03:50:28;95611.19;;;3.23;90.56
28927;BME280;16038;47.692;9.400;2023-03-11T03:52:53;95615.53;;;3.40;87.86
28927;BME280;16038;47.692;9.400;2023-03-11T03:55:18;95615.97;;;3.42;88.63
28927;BME280;16038;47.692;9.400;2023-03-11T03:57:43;95605.06;;;3.55;86.68
28927;BME280;16038;47.692;9.400;2023-03-11T04:00:09;95608.78;;;3.34;86.47
28927;BME280;16038;47.692;9.400;2023-03-11T04:02:34;95619.44;;;3.15;86.68
28927;BME280;16038;47.692;9.400;2023-03-11T04:05:00;95624.69;;;2.95;87.32
28927;BME280;16038;47.692;9.400;2023-03-11T04:07:25;95642.19;;;2.98;86.37
28927;BME280;16038;47.692;9.400;2023-03-11T04:09:50;95640.19;;;3.23;85.61
28927;BME280;16038;47.692;9.400;2023-03-11T04:12:16;95639.19;;;3.15;84.40
28927;BME280;16038;47.692;9.400;2023-03-11T04:14:42;95633.53;;;3.20;83.91
28927;BME280;16038;47.692;9.400;2023-03-11T04:17:09;95644.53;;;3.28;81.17
28927;BME280;16038;47.692;9.400;2023-03-11T04:19:35;95627.72;;;3.34;79.39
28927;BME280;16038;47.692;9.400;2023-03-11T04:22:00;95628.06;;;3.33;79.18
28927;BME280;16038;47.692;9.400;2023-03-11T04:24:26;95643.75;;;3.27;79.01
28927;BME280;16038;47.692;9.400;2023-03-11T04:26:52;95645.88;;;3.34;76.88
28927;BME280;16038;47.692;9.400;2023-03-11T04:29:18;95642.44;;;3.21;78.86
28927;BME280;16038;47.692;9.400;2023-03-11T04:31:43;95650.25;;;3.10;78.50
28927;BME280;16038;47.692;9.400;2023-03-11T04:34:09;95650.13;;;3.19;78.23
28927;BME280;16038;47.692;9.400;2023-03-11T04:36:34;95651.19;;;3.02;78.47
28927;BME280;16038;47.692;9.400;2023-03-11T04:38:59;95656.59;;;3.02;78.77
28927;BME280;16038;47.692;9.400;2023-03-11T04:41:25;95644.56;;;2.99;79.27
28927;BME280;16038;47.692;9.400;2023-03-11T04:43:50;95645.63;;;3.11;77.71
28927;BME280;16038;47.692;9.400;2023-03-11T04:46:16;95643.47;;;3.16;77.04
28927;BME280;16038;47.692;9.400;2023-03-11T04:48:41;95645.72;;;3.14;77.95
28927;BME280;16038;47.692;9.400;2023-03-11T04:51:06;95647.91;;;3.09;78.23
28927;BME280;16038;47.692;9.400;2023-03-11T04:53:32;95639.34;;;3.06;78.15
28927;BME280;16038;47.692;9.400;2023-03-11T04:55:57;95647.25;;;2.99;77.34
28927;BME280;16038;47.692;9.400;2023-03-11T04:58:22;95645.53;;;3.07;77.51
28927;BME280;16038;47.692;9.400;2023-03-11T05:00:48;95639.44;;;3.10;77.65
28927;BME280;16038;47.692;9.400;2023-03-11T05:03:13;95645.38;;;3.16;77.75
28927;BME280;16038;47.692;9.400;2023-03-11T05:05:38;95649.31;;;3.18;77.41
28927;BME280;16038;47.692;9.400;2023-03-11T05:08:04;95655.44;;;3.15;78.76
28927;BME280;16038;47.692;9.400;2023-03-11T05:10:29;95657.34;;;3.15;80.02
28927;BME280;16038;47.692;9.400;2023-03-11T05:12:54;95665.00;;;3.13;80.62
28927;BME280;16038;47.692;9.400;2023-03-11T05:15:19;95676.31;;;3.02;79.52
28927;BME280;16038;47.692;9.400;2023-03-11T05:17:47;95678.56;;;3.00;79.34
28927;BME280;16038;47.692;9.400;2023-03-11T05:20:12;95685.81;;;2.84;80.43
28927;BME280;16038;47.692;9.400;2023-03-11T05:22:38;95686.38;;;2.77;78.18
28927;BME280;16038;47.692;9.400;2023-03-11T05:25:04;95687.44;;;2.73;77.87
28927;BME280;16038;47.692;9.400;2023-03-11T05:27:29;95685.28;;;2.66;78.55
28927;BME280;16038;47.692;9.400;2023-03-11T05:29:54;95690.25;;;2.64;78.09
28927;BME280;16038;47.692;9.400;2023-03-11T05:32:20;95690.47;;;2.59;77.95
28927;BME280;16038;47.692;9.400;2023-03-11T05:34:45;95696.88;;;2.66;78.00
28927;BME280;16038;47.692;9.400;2023-03-11T05:37:10;95701.06;;;2.64;77.83
28927;BME280;16038;47.692;9.400;2023-03-11T05:39:36;95708.84;;;2.65;77.44
28927;BME280;16038;47.692;9.400;2023-03-11T05:42:02;95706.38;;;2.60;77.15
28927;BME280;16038;47.692;9.400;2023-03-11T05:44:27;95703.09;;;2.67;76.61
28927;BME280;16038;47.692;9.400;2023-03-11T05:46:53;95712.53;;;2.61;77.19
28927;BME280;16038;47.692;9.400;2023-03-11T05:49:18;95709.72;;;2.57;77.51
28927;BME280;16038;47.692;9.400;2023-03-11T05:51:45;95709.84;;;2.61;76.05
28927;BME280;16038;47.692;9.400;2023-03-11T05:54:10;95703.09;;;2.55;74.26
28927;BME280;16038;47.692;9.400;2023-03-11T05:56:39;95699.84;;;2.49;74.34
28927;BME280;16038;47.692;9.400;2023-03-11T05:59:04;95694.66;;;2.44;75.78
28927;BME280;16038;47.692;9.400;2023-03-11T06:01:30;95694.09;;;2.51;75.99
28927;BME280;16038;47.692;9.400;2023-03-11T06:03:55;95691.97;;;2.44;76.90
28927;BME280;16038;47.692;9.400;2023-03-11T06:06:20;95693.28;;;2.50;76.19
28927;BME280;16038;47.692;9.400;2023-03-11T06:08:46;95691.84;;;2.53;75.08
28927;BME280;16038;47.692;9.400;2023-03-11T06:11:14;95693.78;;;2.52;76.61
28927;BME280;16038;47.692;9.400;2023-03-11T06:13:39;95692.41;;;2.46;74.54
28927;BME280;16038;47.692;9.400;2023-03-11T06:16:05;95691.97;;;2.56;73.44
28927;BME280;16038;47.692;9.400;2023-03-11T06:18:30;95705.47;;;2.56;73.70
28927;BME280;16038;47.692;9.400;2023-03-11T06:20:59;95711.88;;;2.64;72.62
28927;BME280;16038;47.692;9.400;2023-03-11T06:23:24;95712.09;;;2.59;72.95
28927;BME280;16038;47.692;9.400;2023-03-11T06:25:57;95710.66;;;2.61;72.40
28927;BME280;16038;47.692;9.400;2023-03-11T06:28:22;95718.66;;;2.45;71.78
28927;BME280;16038;47.692;9.400;2023-03-11T06:30:47;95717.84;;;2.57;70.95
28927;BME280;16038;47.692;9.400;2023-03-11T06:33:13;95730.69;;;2.60;73.25
28927;BME280;16038;47.692;9.400;2023-03-11T06:35:39;95735.22;;;2.56;72.43
28927;BME280;16038;47.692;9.400;2023-03-11T06:38:04;95734.19;;;2.61;71.38
28927;BME280;16038;47.692;9.400;2023-03-11T06:40:30;95737.81;;;2.65;72.12
28927;BME280;16038;47.692;9.400;2023-03-11T06:42:55;95745.81;;;2.61;71.96
28927;BME280;16038;47.692;9.400;2023-03-11T06:45:20;95740.06;;;2.63;72.01
28927;BME280;16038;47.692;9.400;2023-03-11T06:47:45;95748.16;;;2.63;72.21
28927;BME280;16038;47.692;9.400;2023-03-11T06:50:11;95743.88;;;2.62;72.44
28927;BME280;16038;47.692;9.400;2023-03-11T06:52:36;95745.81;;;2.61;73.02
28927;BME280;16038;47.692;9.400;2023-03-11T06:55:02;95757.72;;;2.48;73.80
28927;BME280;16038;47.692;9.400;2023-03-11T06:57:28;95753.22;;;2.52;73.44
28927;BME280;16038;47.692;9.400;2023-03-11T06:59:55;95756.16;;;2.47;73.63
28927;BME280;16038;47.692;9.400;2023-03-11T07:02:20;95767.09;;;2.51;73.71
28927;BME280;16038;47.692;9.400;2023-03-11T07:04:47;95768.75;;;2.55;73.71
28927;BME280;16038;47.692;9.400;2023-03-11T07:07:13;95778.47;;;2.56;72.91
28927;BME280;16038;47.692;9.400;2023-03-11T07:09:38;95780.72;;;2.54;74.09
28927;BME280;16038;47.692;9.400;2023-03-11T07:12:03;95773.16;;;2.47;72.70
28927;BME280;16038;47.692;9.400;2023-03-11T07:14:28;95773.72;;;2.53;74.16
28927;BME280;16038;47.692;9.400;2023-03-11T07:16:54;95781.28;;;2.60;71.95
28927;BME280;16038;47.692;9.400;2023-03-11T07:19:19;95789.16;;;2.65;70.54
28927;BME280;16038;47.692;9.400;2023-03-11T07:21:44;95789.84;;;2.62;70.02
28927;BME280;16038;47.692;9.400;2023-03-11T07:24:11;95802.81;;;2.68;68.42
28927;BME280;16038;47.692;9.400;2023-03-11T07:26:36;95801.75;;;2.61;68.19
28927;BME280;16038;47.692;9.400;2023-03-11T07:29:01;95796.25;;;2.57;67.85
28927;BME280;16038;47.692;9.400;2023-03-11T07:31:28;95800.88;;;2.69;67.21
28927;BME280;16038;47.692;9.400;2023-03-11T07:33:55;95801.00;;;2.73;64.97
28927;BME280;16038;47.692;9.400;2023-03-11T07:36:21;95800.44;;;2.67;64.51
28927;BME280;16038;47.692;9.400;2023-03-11T07:38:47;95802.25;;;2.63;64.85
28927;BME280;16038;47.692;9.400;2023-03-11T07:41:13;95805.59;;;2.60;64.74
28927;BME280;16038;47.692;9.400;2023-03-11T07:43:39;95800.88;;;2.69;65.03
28927;BME280;16038;47.692;9.400;2023-03-11T07:48:30;95809.22;;;2.76;65.26
28927;BME280;16038;47.692;9.400;2023-03-11T07:51:16;95813.63;;;2.68;65.72
28927;BME280;16038;47.692;9.400;2023-03-11T07:53:41;95812.81;;;2.68;65.66
28927;BME280;16038;47.692;9.400;2023-03-11T07:56:07;95803.34;;;2.62;65.74
28927;BME280;16038;47.692;9.400;2023-03-11T07:58:33;95805.38;;;2.77;66.66
28927;BME280;16038;47.692;9.400;2023-03-11T08:01:17;95817.56;;;2.83;65.79
28927;BME280;16038;47.692;9.400;2023-03-11T08:03:43;95813.47;;;2.77;65.35
28927;BME280;16038;47.692;9.400;2023-03-11T08:06:12;95807.75;;;2.91;65.29
28927;BME280;16038;47.692;9.400;2023-03-11T08:08:38;95810.91;;;2.93;65.99
28927;BME280;16038;47.692;9.400;2023-03-11T08:11:03;95808.09;;;3.02;65.95
28927;BME280;16038;47.692;9.400;2023-03-11T08:13:29;95804.72;;;3.05;66.06
28927;BME280;16038;47.692;9.400;2023-03-11T08:15:54;95814.50;;;3.10;65.45
28927;BME280;16038;47.692;9.400;2023-03-11T08:18:19;95828.72;;;3.06;66.53
28927;BME280;16038;47.692;9.400;2023-03-11T08:20:45;95829.84;;;3.05;66.29
28927;BME280;16038;47.692;9.400;2023-03-11T08:23:10;95820.38;;;3.12;65.44
28927;BME280;16038;47.692;9.400;2023-03-11T08:25:38;95816.97;;;3.02;65.85
28927;BME280;16038;47.692;9.400;2023-03-11T08:28:04;95814.50;;;3.10;65.99
28927;BME280;16038;47.692;9.400;2023-03-11T08:30:32;95796.81;;;3.12;65.41
28927;BME280;16038;47.692;9.400;2023-03-11T08:32:57;95819.56;;;3.11;66.15
28927;BME280;16038;47.692;9.400;2023-03-11T08:35:22;95824.41;;;3.05;66.69
28927;BME280;16038;47.692;9.400;2023-03-11T08:37:48;95839.44;;;3.15;65.48
28927;BME280;16038;47.692;9.400;2023-03-11T08:40:13;95850.25;;;3.03;65.99
28927;BME280;16038;47.692;9.400;2023-03-11T08:42:38;95847.78;;;3.10;66.45
28927;BME280;16038;47.692;9.400;2023-03-11T08:45:04;95851.91;;;3.08;66.25
28927;BME280;16038;47.692;9.400;2023-03-11T08:47:32;95845.97;;;3.02;66.17
28927;BME280;16038;47.692;9.400;2023-03-11T08:49:58;95840.88;;;3.13;64.85
28927;BME280;16038;47.692;9.400;2023-03-11T08:52:23;95857.81;;;2.97;65.06
28927;BME280;16038;47.692;9.400;2023-03-11T08:54:48;95859.94;;;3.04;66.17
28927;BME280;16038;47.692;9.400;2023-03-11T08:57:13;95863.78;;;2.91;66.02
28927;BME280;16038;47.692;9.400;2023-03-11T08:59:39;95855.09;;;2.85;66.20
28927;BME280;16038;47.692;9.400;2023-03-11T09:02:04;95863.88;;;2.94;65.98
28927;BME280;16038;47.692;9.400;2023-03-11T09:04:29;95861.84;;;2.91;65.55
28927;BME280;16038;47.692;9.400;2023-03-11T09:06:54;95859.16;;;3.16;63.81
28927;BME280;16038;47.692;9.400;2023-03-11T09:09:20;95872.22;;;3.26;62.86
28927;BME280;16038;47.692;9.400;2023-03-11T09:11:45;95873.78;;;3.15;64.09
28927;BME280;16038;47.692;9.400;2023-03-11T09:14:11;95871.75;;;3.36;64.17
28927;BME280;16038;47.692;9.400;2023-03-11T09:16:37;95874.56;;;3.40;62.52
28927;BME280;16038;47.692;9.400;2023-03-11T09:19:02;95877.03;;;3.57;61.12
28927;BME280;16038;47.692;9.400;2023-03-11T09:21:31;95874.84;;;3.75;60.39
28927;BME280;16038;47.692;9.400;2023-03-11T09:23:56;95878.72;;;4.02;59.40
28927;BME280;16038;47.692;9.400;2023-03-11T09:26:21;95880.81;;;4.21;58.17
28927;BME280;16038;47.692;9.400;2023-03-11T09:28:47;95883.59;;;4.53;57.23
28927;BME280;16038;47.692;9.400;2023-03-11T09:31:13;95889.25;;;4.48;56.73
28927;BME280;16038;47.692;9.400;2023-03-11T09:33:39;95888.59;;;4.67;56.60
28927;BME280;16038;47.692;9.400;2023-03-11T09:36:05;95889.41;;;5.00;55.11
28927;BME280;16038;47.692;9.400;2023-03-11T09:38:31;95900.53;;;5.10;54.03
28927;BME280;16038;47.692;9.400;2023-03-11T09:40:58;95901.22;;;4.75;53.83
28927;BME280;16038;47.692;9.400;2023-03-11T09:45:52;95901.91;;;4.72;54.55
28927;BME280;16038;47.692;9.400;2023-03-11T09:48:27;95911.91;;;5.00;51.33
28927;BME280;16038;47.692;9.400;2023-03-11T09:51:00;95903.41;;;5.33;49.59
28927;BME280;16038;47.692;9.400;2023-03-11T09:53:28;95899.75;;;5.26;49.21
28927;BME280;16038;47.692;9.400;2023-03-11T09:56:01;95905.34;;;5.01;51.24
28927;BME280;16038;47.692;9.400;2023-03-11T09:58:36;95902.47;;;4.94;53.06
28927;BME280;16038;47.692;9.400;2023-03-11T10:01:03;95919.34;;;5.03;50.27
28927;BME280;16038;47.692;9.400;2023-03-11T10:03:36;95907.00;;;4.74;51.19
28927;BME280;16038;47.692;9.400;2023-03-11T10:06:13;95910.41;;;4.87;50.23
28927;BME280;16038;47.692;9.400;2023-03-11T10:08:41;95909.03;;;5.76;48.22
28927;BME280;16038;47.692;9.400;2023-03-11T10:13:50;95907.09;;;7.40;43.73
28927;BME280;16038;47.692;9.400;2023-03-11T10:18:50;95913.91;;;7.26;43.17
28927;BME280;16038;47.692;9.400;2023-03-11T10:26:32;95918.00;;;6.94;41.52
28927;BME280;16038;47.692;9.400;2023-03-11T10:29:01;95897.69;;;7.87;39.17
28927;BME280;16038;47.692;9.400;2023-03-11T10:33:58;95907.69;;;9.56;37.25
28927;BME280;16038;47.692;9.400;2023-03-11T10:36:28;95910.25;;;9.86;35.29
28927;BME280;16038;47.692;9.400;2023-03-11T10:38:58;95911.41;;;9.30;33.50
28927;BME280;16038;47.692;9.400;2023-03-11T10:41:41;95906.38;;;10.64;34.36
28927;BME280;16038;47.692;9.400;2023-03-11T10:44:11;95910.53;;;7.10;36.59
28927;BME280;16038;47.692;9.400;2023-03-11T10:46:37;95907.44;;;7.61;38.60
28927;BME280;16038;47.692;9.400;2023-03-11T10:49:04;95905.66;;;9.01;38.09
28927;BME280;16038;47.692;9.400;2023-03-11T10:51:31;95897.09;;;8.01;42.46
28927;BME280;16038;47.692;9.400;2023-03-11T10:53:58;95897.91;;;7.75;41.96
28927;BME280;16038;47.692;9.400;2023-03-11T10:56:25;95905.00;;;8.10;42.15
28927;BME280;16038;47.692;9.400;2023-03-11T10:58:51;95908.44;;;8.07;41.75
28927;BME280;16038;47.692;9.400;2023-03-11T11:01:17;95903.22;;;8.24;41.67
28927;BME280;16038;47.692;9.400;2023-03-11T11:03:43;95899.59;;;8.77;41.50
28927;BME280;16038;47.692;9.400;2023-03-11T11:06:20;95897.34;;;7.62;41.72
28927;BME280;16038;47.692;9.400;2023-03-11T11:08:47;95886.25;;;8.08;41.98
28927;BME280;16038;47.692;9.400;2023-03-11T11:11:19;95886.13;;;8.28;41.61
28927;BME280;16038;47.692;9.400;2023-03-11T11:13:48;95891.34;;;8.10;42.49
28927;BME280;16038;47.692;9.400;2023-03-11T11:16:19;95892.19;;;7.83;43.52
28927;BME280;16038;47.692;9.400;2023-03-11T11:21:36;95897.94;;;8.69;40.82
28927;BME280;16038;47.692;9.400;2023-03-11T11:24:23;95895.97;;;7.75;41.54
28927;BME280;16038;47.692;9.400;2023-03-11T11:29:31;95878.88;;;7.52;43.15
28927;BME280;16038;47.692;9.400;2023-03-11T11:34:40;95892.09;;;6.38;46.62
28927;BME280;16038;47.692;9.400;2023-03-11T11:37:05;95890.03;;;6.97;45.25
28927;BME280;16038;47.692;9.400;2023-03-11T11:39:44;95892.09;;;7.26;42.70
28927;BME280;16038;47.692;9.400;2023-03-11T11:42:15;95886.88;;;7.41;42.36
28927;BME280;16038;47.692;9.400;2023-03-11T11:44:41;95896.41;;;7.04;43.26
28927;BME280;16038;47.692;9.400;2023-03-11T11:47:16;95890.22;;;7.31;43.37
28927;BME280;16038;47.692;9.400;2023-03-11T11:49:48;95885.22;;;7.59;41.48
28927;BME280;16038;47.692;9.400;2023-03-11T11:52:32;95882.47;;;7.33;41.76
28927;BME280;16038;47.692;9.400;2023-03-11T11:55:01;95880.94;;;7.58;42.23
28927;BME280;16038;47.692;9.400;2023-03-11T11:57:28;95873.22;;;7.14;42.64
28927;BME280;16038;47.692;9.400;2023-03-11T11:59:53;95870.16;;;6.93;43.27
28927;BME280;16038;47.692;9.400;2023-03-11T12:18:28;95859.78;;;10.57;37.02
28927;BME280;16038;47.692;9.400;2023-03-11T12:20:59;95862.78;;;10.27;36.33
28927;BME280;16038;47.692;9.400;2023-03-11T12:30:57;95855.06;;;10.50;40.04
28927;BME280;16038;47.692;9.400;2023-03-11T12:33:34;95848.75;;;10.32;39.35
28927;BME280;16038;47.692;9.400;2023-03-11T12:36:01;95856.66;;;10.62;39.52
28927;BME280;16038;47.692;9.400;2023-03-11T12:38:29;95848.56;;;9.33;41.05
28927;BME280;16038;47.692;9.400;2023-03-11T12:50:51;95829.75;;;8.05;44.21
28927;BME280;16038;47.692;9.400;2023-03-11T12:53:16;95824.88;;;7.07;48.40
28927;BME280;16038;47.692;9.400;2023-03-11T12:55:53;95825.63;;;7.04;48.62
28927;BME280;16038;47.692;9.400;2023-03-11T12:58:35;95835.69;;;6.77;50.22
28927;BME280;16038;47.692;9.400;2023-03-11T13:01:14;95834.44;;;6.28;53.81
28927;BME280;16038;47.692;9.400;2023-03-11T13:03:50;95841.66;;;6.01;55.57
28927;BME280;16038;47.692;9.400;2023-03-11T13:09:11;95823.66;;;5.22;59.31
28927;BME280;16038;47.692;9.400;2023-03-11T13:11:41;95826.50;;;5.29;61.67
28927;BME280;16038;47.692;9.400;2023-03-11T13:16:36;95827.34;;;4.82;66.56
28927;BME280;16038;47.692;9.400;2023-03-11T13:21:46;95822.00;;;5.02;67.33
28927;BME280;16038;47.692;9.400;2023-03-11T13:26:44;95823.84;;;4.97;69.85
28927;BME280;16038;47.692;9.400;2023-03-11T13:31:51;95824.59;;;5.30;69.53
28927;BME280;16038;47.692;9.400;2023-03-11T13:41:51;95813.00;;;5.68;65.39
28927;BME280;16038;47.692;9.400;2023-03-11T13:46:49;95820.56;;;5.59;65.01
28927;BME280;16038;47.692;9.400;2023-03-11T13:51:50;95824.03;;;5.05;66.24
28927;BME280;16038;47.692;9.400;2023-03-11T13:56:47;95824.59;;;5.30;68.48
28927;BME280;16038;47.692;9.400;2023-03-11T14:01:46;95839.00;;;5.50;71.16
28927;BME280;16038;47.692;9.400;2023-03-11T14:04:11;95840.91;;;5.85;70.30
28927;BME280;16038;47.692;9.400;2023-03-11T14:06:37;95841.72;;;6.05;69.88
28927;BME280;16038;47.692;9.400;2023-03-11T14:09:02;95840.00;;;6.36;68.87
28927;BME280;16038;47.692;9.400;2023-03-11T14:11:30;95839.44;;;6.07;69.62
28927;BME280;16038;47.692;9.400;2023-03-11T14:13:55;95849.16;;;6.08;71.45
28927;BME280;16038;47.692;9.400;2023-03-11T14:16:27;95845.19;;;6.44;67.06
28927;BME280;16038;47.692;9.400;2023-03-11T14:19:12;95846.50;;;6.31;66.29
28927;BME280;16038;47.692;9.400;2023-03-11T14:21:41;95843.38;;;6.29;66.36
28927;BME280;16038;47.692;9.400;2023-03-11T14:26:42;95846.84;;;5.90;70.97
28927;BME280;16038;47.692;9.400;2023-03-11T14:29:14;95850.09;;;5.61;70.59
28927;BME280;16038;47.692;9.400;2023-03-11T14:31:41;95851.91;;;5.72;70.52
28927;BME280;16038;47.692;9.400;2023-03-11T14:34:24;95850.66;;;5.50;69.66
28927;BME280;16038;47.692;9.400;2023-03-11T14:36:52;95861.09;;;5.48;67.98
28927;BME280;16038;47.692;9.400;2023-03-11T14:39:31;95859.81;;;5.26;70.54
28927;BME280;16038;47.692;9.400;2023-03-11T14:44:22;95863.22;;;5.39;68.84
28927;BME280;16038;47.692;9.400;2023-03-11T14:46:49;95864.13;;;5.11;71.21
28927;BME280;16038;47.692;9.400;2023-03-11T14:49:17;95869.72;;;5.19;71.09
28927;BME280;16038;47.692;9.400;2023-03-11T14:51:44;95872.16;;;5.24;70.22
28927;BME280;16038;47.692;9.400;2023-03-11T14:54:15;95866.28;;;5.22;71.01